createdAt,value
2022-11-20T00:02:02.630Z,77.81
2022-11-20T00:03:03.368Z,78.09
2022-11-20T00:04:03.264Z,78.03
2022-11-20T00:05:03.221Z,78.06
2022-11-20T00:06:03.291Z,78.03
2022-11-20T00:07:03.270Z,77.93
2022-11-20T00:08:03.156Z,77.82
2022-11-20T00:09:03.225Z,77.96
2022-11-20T00:10:03.139Z,78.04
2022-11-20T00:11:03.145Z,78.07
2022-11-20T00:12:03.330Z,78.17
2022-11-20T00:13:03.186Z,78.25
2022-11-20T00:31:16.597Z,78.05
2022-11-20T00:32:17.540Z,78.12
2022-11-20T00:33:17.163Z,77.92
2022-11-20T00:34:17.186Z,78.00
2022-11-20T00:35:17.115Z,78.00
2022-11-20T00:36:17.148Z,77.83
2022-11-20T00:37:17.289Z,77.77
2022-11-20T00:38:17.071Z,77.79
2022-11-20T00:39:17.063Z,77.71
2022-11-20T00:40:17.087Z,77.66
2022-11-20T00:41:17.101Z,77.56
2022-11-20T00:44:35.220Z,77.66
2022-11-20T00:45:36.090Z,77.79
2022-11-20T00:48:21.171Z,77.77
2022-11-20T00:49:22.235Z,77.57
2022-11-20T00:50:21.775Z,77.28
2022-11-20T00:51:21.824Z,77.34
2022-11-20T00:52:22.006Z,77.63
2022-11-20T01:08:00.454Z,77.18
2022-11-20T01:09:01.283Z,77.69
2022-11-20T01:10:01.042Z,77.57
2022-11-20T01:11:01.060Z,77.45
2022-11-20T01:12:00.993Z,77.71
2022-11-20T01:18:36.154Z,77.09
2022-11-20T01:19:37.003Z,77.23
2022-11-20T01:20:37.026Z,77.37
2022-11-20T01:21:36.763Z,77.34
2022-11-20T01:22:36.838Z,77.43
2022-11-20T01:23:36.803Z,77.19
2022-11-20T01:25:36.222Z,77.05
2022-11-20T01:31:42.205Z,76.97
2022-11-20T01:32:43.213Z,77.15
2022-11-20T01:33:42.901Z,77.05
2022-11-20T01:34:42.918Z,77.18
2022-11-20T01:35:42.787Z,77.30
2022-11-20T01:36:42.800Z,77.25
2022-11-20T01:37:42.740Z,77.32
2022-11-20T01:38:42.754Z,77.19
2022-11-20T01:39:42.757Z,77.37
2022-11-20T01:42:38.220Z,76.49
2022-11-20T01:43:39.169Z,76.67
2022-11-20T01:44:38.842Z,76.77
2022-11-20T01:45:38.808Z,76.68
2022-11-20T01:46:38.752Z,76.75
2022-11-20T01:47:38.864Z,76.98
2022-11-20T01:48:38.717Z,77.04
2022-11-20T01:49:38.701Z,76.89
2022-11-20T01:50:38.780Z,76.90
2022-11-20T01:51:38.744Z,76.88
2022-11-20T01:52:38.752Z,76.98
2022-11-20T01:53:38.727Z,77.16
2022-11-20T01:54:38.726Z,77.06
2022-11-20T01:55:38.693Z,76.88
2022-11-20T01:56:38.642Z,76.85
2022-11-20T01:57:38.696Z,76.98
2022-11-20T01:58:38.674Z,77.03
2022-11-20T01:59:38.625Z,76.93
2022-11-20T02:00:38.697Z,76.98
2022-11-20T02:01:38.749Z,76.85
2022-11-20T02:02:38.655Z,76.99
2022-11-20T02:03:38.606Z,76.93
2022-11-20T02:08:36.835Z,76.74
2022-11-20T02:09:37.704Z,76.94
2022-11-20T02:10:37.510Z,76.68
2022-11-20T02:11:37.577Z,76.40
2022-11-20T02:12:37.454Z,76.24
2022-11-20T02:13:37.553Z,76.36
2022-11-20T02:18:16.610Z,76.68
2022-11-20T02:19:17.602Z,76.69
2022-11-20T02:20:17.396Z,76.56
2022-11-20T02:21:17.284Z,76.77
2022-11-20T02:22:17.433Z,76.69
2022-11-20T02:23:17.394Z,76.71
2022-11-20T02:24:17.340Z,76.91
2022-11-20T02:25:17.271Z,76.76
2022-11-20T02:26:17.333Z,77.01
2022-11-20T02:27:17.259Z,77.14
2022-11-20T02:28:17.238Z,77.12
2022-11-20T02:29:17.410Z,76.65
2022-11-20T02:30:17.197Z,76.73
2022-11-20T02:31:17.308Z,76.75
2022-11-20T02:32:17.211Z,76.68
2022-11-20T02:33:17.200Z,76.91
2022-11-20T02:34:17.203Z,77.04
2022-11-20T02:35:17.116Z,77.02
2022-11-20T02:36:17.132Z,76.73
2022-11-20T02:37:17.182Z,76.96
2022-11-20T02:38:17.129Z,77.10
2022-11-20T02:39:17.100Z,77.06
2022-11-20T02:40:17.067Z,77.06
2022-11-20T02:41:17.139Z,77.01
2022-11-20T02:42:17.082Z,77.03
2022-11-20T02:43:17.142Z,76.84
2022-11-20T02:44:17.061Z,76.87
2022-11-20T02:45:17.032Z,76.80
2022-11-20T02:46:16.999Z,76.83
2022-11-20T02:47:17.008Z,76.62
2022-11-20T02:48:16.974Z,76.82
2022-11-20T02:49:17.125Z,76.91
2022-11-20T02:50:16.937Z,76.75
2022-11-20T02:51:16.920Z,76.82
2022-11-20T02:52:16.904Z,76.79
2022-11-20T02:53:16.919Z,76.72
2022-11-20T02:54:16.886Z,76.85
2022-11-20T02:55:16.918Z,76.83
2022-11-20T02:56:16.867Z,76.72
2022-11-20T02:57:16.962Z,76.82
2022-11-20T02:58:16.877Z,76.58
2022-11-20T02:59:16.806Z,76.51
2022-11-20T03:00:16.871Z,76.77
2022-11-20T03:01:16.873Z,76.63
2022-11-20T03:02:16.805Z,76.76
2022-11-20T03:03:16.768Z,76.63
2022-11-20T03:04:16.756Z,76.63
2022-11-20T03:05:16.755Z,76.74
2022-11-20T03:06:16.713Z,76.73
2022-11-20T03:07:16.811Z,76.35
2022-11-20T03:08:16.728Z,76.52
2022-11-20T03:09:16.699Z,76.69
2022-11-20T03:10:16.660Z,76.34
2022-11-20T03:11:16.753Z,76.45
2022-11-20T03:12:16.680Z,76.64
2022-11-20T03:13:16.688Z,76.59
2022-11-20T03:14:16.635Z,76.56
2022-11-20T03:15:16.734Z,76.60
2022-11-20T03:16:16.550Z,76.60
2022-11-20T03:17:16.575Z,76.45
2022-11-20T03:18:16.569Z,76.59
2022-11-20T03:19:16.563Z,76.36
2022-11-20T03:20:16.586Z,76.31
2022-11-20T03:21:16.540Z,76.35
2022-11-20T03:22:16.573Z,76.47
2022-11-20T03:23:16.541Z,76.44
2022-11-20T03:24:16.460Z,76.31
2022-11-20T03:25:16.548Z,76.35
2022-11-20T03:26:16.456Z,76.21
2022-11-20T03:27:16.421Z,76.13
2022-11-20T03:28:16.521Z,76.16
2022-11-20T03:29:16.438Z,75.99
2022-11-20T03:30:16.474Z,75.97
2022-11-20T03:31:16.435Z,76.12
2022-11-20T03:32:16.458Z,76.11
2022-11-20T03:33:16.465Z,75.93
2022-11-20T03:34:16.372Z,75.96
2022-11-20T03:35:16.363Z,75.94
2022-11-20T03:36:16.409Z,76.14
2022-11-20T03:37:16.375Z,75.93
2022-11-20T03:40:43.638Z,75.46
2022-11-20T03:41:44.616Z,75.64
2022-11-20T03:42:44.651Z,75.60
2022-11-20T03:43:44.493Z,75.71
2022-11-20T03:44:44.468Z,75.72
2022-11-20T03:45:44.487Z,75.87
2022-11-20T03:46:44.449Z,75.75
2022-11-20T03:47:44.462Z,75.50
2022-11-20T03:48:48.777Z,75.47
2022-11-20T03:49:44.423Z,75.77
2022-11-20T03:50:44.457Z,75.83
2022-11-20T03:51:44.345Z,75.76
2022-11-20T03:52:44.389Z,75.84
2022-11-20T03:58:03.964Z,75.51
2022-11-20T03:59:04.847Z,75.53
2022-11-20T04:00:04.867Z,75.51
2022-11-20T04:01:04.697Z,75.50
2022-11-20T04:02:04.910Z,75.41
2022-11-20T04:03:04.689Z,75.57
2022-11-20T04:04:04.696Z,75.38
2022-11-20T04:05:04.677Z,75.49
2022-11-20T04:06:04.711Z,75.57
2022-11-20T04:07:04.707Z,75.61
2022-11-20T04:08:04.618Z,75.52
2022-11-20T04:09:04.611Z,75.45
2022-11-20T04:12:11.875Z,75.11
2022-11-20T04:13:12.846Z,75.18
2022-11-20T04:14:12.796Z,75.09
2022-11-20T04:15:12.621Z,75.01
2022-11-20T04:16:12.624Z,75.35
2022-11-20T04:17:12.651Z,75.46
2022-11-20T04:18:12.621Z,75.38
2022-11-20T04:19:12.616Z,75.31
2022-11-20T04:20:12.704Z,75.42
2022-11-20T04:21:12.600Z,75.10
2022-11-20T05:54:23.702Z,75.07
2022-11-20T05:55:24.682Z,75.02
2022-11-20T05:58:49.811Z,74.83
2022-11-20T05:59:50.829Z,74.88
2022-11-20T06:00:50.784Z,74.61
2022-11-20T06:01:50.771Z,74.46
2022-11-20T06:02:50.801Z,74.52
2022-11-20T06:03:50.756Z,74.45
2022-11-20T06:04:50.736Z,74.34
2022-11-20T06:05:50.723Z,74.44
2022-11-20T06:06:50.721Z,74.51
2022-11-20T06:07:50.727Z,74.51
2022-11-20T06:08:50.678Z,74.27
2022-11-20T06:09:50.669Z,74.09
2022-11-20T06:10:50.660Z,74.09
2022-11-20T06:11:50.643Z,74.42
2022-11-20T06:12:50.624Z,74.15
2022-11-20T06:13:50.633Z,74.14
2022-11-20T06:14:50.602Z,73.91
2022-11-20T06:15:50.593Z,73.89
2022-11-20T06:16:50.571Z,73.78
2022-11-20T06:17:50.575Z,73.58
2022-11-20T06:18:50.551Z,73.54
2022-11-20T06:19:50.544Z,73.46
2022-11-20T06:20:50.530Z,73.64
2022-11-20T06:21:50.523Z,73.64
2022-11-20T06:22:50.549Z,73.34
2022-11-20T06:23:50.530Z,73.10
2022-11-20T06:24:50.477Z,73.06
2022-11-20T06:25:50.487Z,73.35
2022-11-20T06:26:50.451Z,73.11
2022-11-20T06:27:50.438Z,72.82
2022-11-20T06:28:50.459Z,73.01
2022-11-20T06:29:50.412Z,73.36
2022-11-20T06:30:50.413Z,72.76
2022-11-20T06:31:50.406Z,72.92
2022-11-20T06:32:50.374Z,73.19
2022-11-20T06:33:50.360Z,73.13
2022-11-20T06:34:50.341Z,72.92
2022-11-20T06:35:53.271Z,72.76
2022-11-20T06:36:50.330Z,72.13
2022-11-20T06:37:50.307Z,72.15
2022-11-20T06:38:50.288Z,72.13
2022-11-20T06:39:50.284Z,72.05
2022-11-20T06:40:50.291Z,72.13
2022-11-20T06:41:53.283Z,71.99
2022-11-20T06:42:50.250Z,72.06
2022-11-20T06:43:50.260Z,72.06
2022-11-20T06:44:50.256Z,71.93
2022-11-20T06:45:50.202Z,72.10
2022-11-20T06:46:50.230Z,72.15
2022-11-20T06:47:50.182Z,71.46
2022-11-20T06:48:50.168Z,71.40
2022-11-20T06:49:50.264Z,71.34
2022-11-20T06:50:50.144Z,71.26
2022-11-20T06:51:50.131Z,71.53
2022-11-20T06:52:50.124Z,71.45
2022-11-20T06:53:50.109Z,71.61
2022-11-20T06:54:50.094Z,71.68
2022-11-20T06:55:50.103Z,71.91
2022-11-20T06:56:50.090Z,71.66
2022-11-20T06:57:54.735Z,71.45
2022-11-20T06:58:50.064Z,71.36
2022-11-20T06:59:50.053Z,71.58
2022-11-20T07:00:50.064Z,71.50
2022-11-20T07:01:50.025Z,71.44
2022-11-20T07:02:49.983Z,71.63
2022-11-20T07:03:54.017Z,71.45
2022-11-20T07:04:49.977Z,71.52
2022-11-20T07:05:49.955Z,71.50
2022-11-20T07:06:49.959Z,71.65
2022-11-20T07:07:49.965Z,71.94
2022-11-20T07:08:49.920Z,72.04
2022-11-20T07:09:49.911Z,71.99
2022-11-20T07:10:49.885Z,72.08
2022-11-20T07:11:49.901Z,72.14
2022-11-20T07:12:49.865Z,72.40
2022-11-20T07:13:49.874Z,72.73
2022-11-20T07:14:50.173Z,72.81
2022-11-20T07:15:49.836Z,72.89
2022-11-20T07:16:49.827Z,73.23
2022-11-20T07:17:49.807Z,73.34
2022-11-20T07:18:51.057Z,73.51
2022-11-20T07:19:49.798Z,73.63
2022-11-20T07:20:49.762Z,73.96
2022-11-20T07:21:49.764Z,73.86
2022-11-20T07:22:49.897Z,73.96
2022-11-20T07:23:49.745Z,74.04
2022-11-20T07:24:49.723Z,74.19
2022-11-20T07:25:49.714Z,74.28
2022-11-20T07:26:49.757Z,74.37
2022-11-20T07:27:49.752Z,74.32
2022-11-20T07:28:49.699Z,74.22
2022-11-20T07:29:49.689Z,74.27
2022-11-20T07:30:49.683Z,74.30
2022-11-20T07:31:49.682Z,74.46
2022-11-20T07:32:49.665Z,74.59
2022-11-20T07:33:49.625Z,74.59
2022-11-20T07:34:49.665Z,74.54
2022-11-20T07:35:49.638Z,74.48
2022-11-20T07:36:49.564Z,74.50
2022-11-20T07:37:49.568Z,74.61
2022-11-20T07:38:49.567Z,74.48
2022-11-20T07:39:49.554Z,74.64
2022-11-20T07:40:49.566Z,74.22
2022-11-20T07:41:49.519Z,73.94
2022-11-20T07:42:49.509Z,73.71
2022-11-20T07:43:49.507Z,73.86
2022-11-20T07:44:49.469Z,74.08
2022-11-20T07:45:49.468Z,73.84
2022-11-20T07:46:49.450Z,73.84
2022-11-20T07:47:49.446Z,73.89
2022-11-20T07:48:49.417Z,73.71
2022-11-20T07:49:49.580Z,73.63
2022-11-20T07:50:49.442Z,73.62
2022-11-20T07:51:51.821Z,73.63
2022-11-20T07:52:49.391Z,73.44
2022-11-20T07:53:49.434Z,73.44
2022-11-20T07:54:49.480Z,73.44
2022-11-20T07:55:49.342Z,73.42
2022-11-20T07:56:49.366Z,73.21
2022-11-20T07:57:49.325Z,73.25
2022-11-20T07:58:49.615Z,72.96
2022-11-20T07:59:49.657Z,73.00
2022-11-20T08:00:49.325Z,72.99
2022-11-20T08:01:49.384Z,72.86
2022-11-20T08:02:50.003Z,72.84
2022-11-20T08:03:49.234Z,72.76
2022-11-20T08:04:49.356Z,72.85
2022-11-20T08:05:49.359Z,72.74
2022-11-20T08:06:49.184Z,72.53
2022-11-20T08:07:49.300Z,72.40
2022-11-20T08:08:49.225Z,72.53
2022-11-20T08:09:49.158Z,72.67
2022-11-20T08:10:49.150Z,72.56
2022-11-20T08:11:49.200Z,72.80
2022-11-20T08:12:49.124Z,72.81
2022-11-20T08:13:49.183Z,72.65
2022-11-20T08:14:49.084Z,72.68
2022-11-20T08:15:49.067Z,72.42
2022-11-20T08:16:49.152Z,72.27
2022-11-20T08:18:08.612Z,71.89
2022-11-20T08:18:49.040Z,72.19
2022-11-20T08:19:49.055Z,72.31
2022-11-20T08:20:57.561Z,72.47
2022-11-20T08:21:49.032Z,72.25
2022-11-20T08:22:49.153Z,71.76
2022-11-20T08:23:51.461Z,71.70
2022-11-20T08:24:49.130Z,71.75
2022-11-20T08:25:48.946Z,71.85
2022-11-20T08:26:49.012Z,71.54
2022-11-20T08:27:48.908Z,71.69
2022-11-20T08:28:49.972Z,71.89
2022-11-20T08:29:48.927Z,71.72
2022-11-20T08:30:48.948Z,71.48
2022-11-20T08:31:48.880Z,71.49
2022-11-20T08:32:49.509Z,71.29
2022-11-20T08:33:48.827Z,71.18
2022-11-20T08:34:48.814Z,71.16
2022-11-20T08:35:48.809Z,70.87
2022-11-20T08:36:48.784Z,70.76
2022-11-20T08:37:48.844Z,70.92
2022-11-20T08:38:48.759Z,70.96
2022-11-20T08:39:48.764Z,70.81
2022-11-20T08:40:48.743Z,70.29
2022-11-20T08:41:48.743Z,70.41
2022-11-20T08:42:48.761Z,70.15
2022-11-20T08:43:48.859Z,70.12
2022-11-20T08:44:48.701Z,70.35
2022-11-20T08:45:48.674Z,70.03
2022-11-20T08:46:48.646Z,70.30
2022-11-20T08:47:48.689Z,70.03
2022-11-20T08:48:48.664Z,69.79
2022-11-20T08:49:48.633Z,69.82
2022-11-20T08:50:48.615Z,69.84
2022-11-20T08:51:48.677Z,69.84
2022-11-20T08:52:48.642Z,69.72
2022-11-20T08:53:48.568Z,70.06
2022-11-20T08:54:48.590Z,69.77
2022-11-20T08:55:48.620Z,69.88
2022-11-20T08:56:48.570Z,69.71
2022-11-20T08:57:51.106Z,69.62
2022-11-20T08:59:17.920Z,69.69
2022-11-20T09:00:05.677Z,69.71
2022-11-20T09:00:48.568Z,69.31
2022-11-20T09:01:49.463Z,69.22
2022-11-20T09:02:48.428Z,69.23
2022-11-20T09:03:48.477Z,69.21
2022-11-20T09:04:48.410Z,69.05
2022-11-20T09:05:48.410Z,69.00
2022-11-20T09:06:48.382Z,68.75
2022-11-20T09:07:49.306Z,69.05
2022-11-20T09:08:49.591Z,68.66
2022-11-20T09:10:09.750Z,68.29
2022-11-20T09:10:48.341Z,68.48
2022-11-20T09:11:48.407Z,68.70
2022-11-20T09:12:48.306Z,68.15
2022-11-20T09:13:48.310Z,68.27
2022-11-20T09:14:53.717Z,68.64
2022-11-20T09:15:48.299Z,68.36
2022-11-20T09:16:48.509Z,68.06
2022-11-20T09:17:48.262Z,68.20
2022-11-20T09:18:54.093Z,68.00
2022-11-20T09:19:48.225Z,68.11
2022-11-20T09:20:48.262Z,67.89
2022-11-20T09:21:48.267Z,68.04
2022-11-20T09:22:48.201Z,67.87
2022-11-20T09:23:48.238Z,68.07
2022-11-20T09:24:48.145Z,67.79
2022-11-20T09:25:48.165Z,67.61
2022-11-20T09:26:48.144Z,67.79
2022-11-20T09:27:48.123Z,67.41
2022-11-20T09:28:48.362Z,67.39
2022-11-20T09:29:48.091Z,67.66
2022-11-20T09:30:48.089Z,67.65
2022-11-20T09:31:48.045Z,67.44
2022-11-20T09:32:48.028Z,67.00
2022-11-20T09:33:48.017Z,66.86
2022-11-20T09:34:48.007Z,66.82
2022-11-20T09:35:48.027Z,66.58
2022-11-20T09:36:47.974Z,66.83
2022-11-20T09:37:47.974Z,66.54
2022-11-20T09:38:47.988Z,66.24
2022-11-20T09:39:47.947Z,66.39
2022-11-20T09:40:47.930Z,66.22
2022-11-20T09:41:47.918Z,66.24
2022-11-20T09:42:47.892Z,65.92
2022-11-20T09:43:47.882Z,65.75
2022-11-20T09:44:47.872Z,65.92
2022-11-20T09:45:47.886Z,65.94
2022-11-20T09:46:47.859Z,65.82
2022-11-20T09:47:47.915Z,65.83
2022-11-20T09:48:47.832Z,65.53
2022-11-20T09:49:47.806Z,65.83
2022-11-20T09:50:47.795Z,65.97
2022-11-20T09:51:47.785Z,65.34
2022-11-20T09:52:47.766Z,65.30
2022-11-20T09:53:47.797Z,64.97
2022-11-20T09:54:47.743Z,65.39
2022-11-20T09:55:47.729Z,65.58
2022-11-20T09:56:47.708Z,65.44
2022-11-20T09:57:47.699Z,65.84
2022-11-20T09:58:47.711Z,64.99
2022-11-20T09:59:47.719Z,65.38
2022-11-20T10:00:47.787Z,64.99
2022-11-20T10:01:47.655Z,64.91
2022-11-20T10:02:47.681Z,64.75
2022-11-20T10:03:47.650Z,64.62
2022-11-20T10:04:47.632Z,64.48
2022-11-20T10:05:47.671Z,64.44
2022-11-20T10:06:59.473Z,64.18
2022-11-20T10:07:47.645Z,63.88
2022-11-20T10:08:47.561Z,64.25
2022-11-20T10:09:47.553Z,64.38
2022-11-20T10:10:52.409Z,63.68
2022-11-20T10:11:47.531Z,63.53
2022-11-20T10:12:47.506Z,63.25
2022-11-20T10:13:47.551Z,63.32
2022-11-20T10:14:47.513Z,63.18
2022-11-20T10:15:47.682Z,63.21
2022-11-20T10:17:59.528Z,63.43
2022-11-20T10:20:18.077Z,63.38
2022-11-20T10:21:18.962Z,63.40
2022-11-20T10:22:19.132Z,63.37
2022-11-20T10:23:24.329Z,63.35
2022-11-20T10:24:19.020Z,63.14
2022-11-20T10:25:18.963Z,63.36
2022-11-20T10:26:18.902Z,63.40
2022-11-20T10:27:18.884Z,63.09
2022-11-20T10:28:18.880Z,63.11
2022-11-20T10:29:18.855Z,63.07
2022-11-20T10:30:18.838Z,63.51
2022-11-20T10:31:18.847Z,63.60
2022-11-20T10:32:18.809Z,63.44
2022-11-20T10:33:18.795Z,63.12
2022-11-20T10:34:22.652Z,63.22
2022-11-20T10:35:18.905Z,63.23
2022-11-20T10:36:18.831Z,63.37
2022-11-20T10:37:18.750Z,63.07
2022-11-20T10:38:18.750Z,63.37
2022-11-20T10:39:18.824Z,63.52
2022-11-20T10:40:18.720Z,62.92
2022-11-20T10:41:18.739Z,62.35
2022-11-20T10:42:18.689Z,62.51
2022-11-20T10:43:18.696Z,62.09
2022-11-20T10:44:18.944Z,61.65
2022-11-20T10:45:18.640Z,61.95
2022-11-20T10:46:18.647Z,61.59
2022-11-20T10:47:18.629Z,61.43
2022-11-20T10:48:18.625Z,61.72
2022-11-20T10:49:18.874Z,61.58
2022-11-20T10:50:22.199Z,61.61
2022-11-20T10:51:18.579Z,62.07
2022-11-20T10:52:18.556Z,62.34
2022-11-20T10:53:18.536Z,61.95
2022-11-20T10:54:18.548Z,62.22
2022-11-20T10:55:18.522Z,62.50
2022-11-20T10:56:18.502Z,62.33
2022-11-20T10:57:18.491Z,62.21
2022-11-20T10:58:18.483Z,62.22
2022-11-20T10:59:18.522Z,62.34
2022-11-20T11:00:18.474Z,62.44
2022-11-20T11:01:18.505Z,62.45
2022-11-20T11:02:18.434Z,62.36
2022-11-20T11:03:18.428Z,62.56
2022-11-20T11:04:18.389Z,62.77
2022-11-20T11:05:18.397Z,62.97
2022-11-20T11:06:18.373Z,62.88
2022-11-20T11:07:18.421Z,62.75
2022-11-20T11:08:18.389Z,62.98
2022-11-20T11:09:18.325Z,63.11
2022-11-20T11:10:18.306Z,63.28
2022-11-20T11:11:18.362Z,63.35
2022-11-20T11:12:18.310Z,63.38
2022-11-20T11:13:18.264Z,63.43
2022-11-20T11:14:18.252Z,63.67
2022-11-20T11:15:18.236Z,63.85
2022-11-20T11:16:18.235Z,63.86
2022-11-20T11:17:18.232Z,64.09
2022-11-20T11:18:18.193Z,64.12
2022-11-20T11:19:18.193Z,64.05
2022-11-20T11:20:18.170Z,64.11
2022-11-20T11:21:18.228Z,64.10
2022-11-20T11:22:18.148Z,64.10
2022-11-20T11:23:18.167Z,64.14
2022-11-20T11:24:40.900Z,64.02
2022-11-20T11:25:18.113Z,64.01
2022-11-20T11:26:18.112Z,64.03
2022-11-20T11:27:18.176Z,63.99
2022-11-20T11:28:18.069Z,63.93
2022-11-20T11:29:18.060Z,64.01
2022-11-20T11:30:18.038Z,64.17
2022-11-20T11:31:18.089Z,64.32
2022-11-20T11:32:18.015Z,64.09
2022-11-20T11:33:18.002Z,64.28
2022-11-20T11:34:17.993Z,64.30
2022-11-20T11:35:17.971Z,64.29
2022-11-20T11:36:17.956Z,64.34
2022-11-20T11:37:17.958Z,64.40
2022-11-20T11:38:17.932Z,64.46
2022-11-20T11:39:17.934Z,64.53
2022-11-20T11:40:25.593Z,64.48
2022-11-20T11:41:17.961Z,64.70
2022-11-20T11:42:17.888Z,64.57
2022-11-20T11:43:17.889Z,64.15
2022-11-20T11:44:17.857Z,63.86
2022-11-20T11:45:17.874Z,63.88
2022-11-20T11:46:17.831Z,63.85
2022-11-20T11:47:17.820Z,64.08
2022-11-20T11:48:17.809Z,64.06
2022-11-20T11:49:17.786Z,63.88
2022-11-20T11:50:17.822Z,63.73
2022-11-20T11:51:17.821Z,63.55
2022-11-20T11:52:17.776Z,63.65
2022-11-20T11:53:17.743Z,63.96
2022-11-20T11:54:17.729Z,63.77
2022-11-20T11:55:18.034Z,63.54
2022-11-20T11:56:18.557Z,63.18
2022-11-20T11:57:17.716Z,63.39
2022-11-20T11:58:17.669Z,63.36
2022-11-20T11:59:17.667Z,63.33
2022-11-20T12:00:17.718Z,63.09
2022-11-20T12:01:17.707Z,63.25
2022-11-20T12:02:17.688Z,62.92
2022-11-20T12:03:17.614Z,63.18
2022-11-20T12:04:17.608Z,62.88
2022-11-20T12:05:17.622Z,63.24
2022-11-20T12:06:17.581Z,63.06
2022-11-20T12:07:44.691Z,63.52
2022-11-20T12:08:17.600Z,63.55
2022-11-20T12:09:17.557Z,63.73
2022-11-20T12:10:17.538Z,63.86
2022-11-20T12:11:17.547Z,63.69
2022-11-20T12:12:17.511Z,64.87
2022-11-20T12:13:17.483Z,67.07
2022-11-20T12:14:17.512Z,67.96
2022-11-20T12:15:17.458Z,68.10
2022-11-20T12:16:17.442Z,67.77
2022-11-20T12:17:17.436Z,67.52
2022-11-20T12:18:17.438Z,68.11
2022-11-20T12:19:17.400Z,68.23
2022-11-20T12:20:17.389Z,68.28
2022-11-20T12:21:17.449Z,68.41
2022-11-20T12:22:17.368Z,68.47
2022-11-20T12:23:17.372Z,68.89
2022-11-20T12:24:17.371Z,69.27
2022-11-20T12:25:17.331Z,69.45
2022-11-20T12:26:17.311Z,69.73
2022-11-20T12:27:17.301Z,69.35
2022-11-20T12:28:17.294Z,69.40
2022-11-20T12:29:17.277Z,69.29
2022-11-20T12:30:17.267Z,69.72
2022-11-20T12:31:17.284Z,70.49
2022-11-20T12:32:17.397Z,70.92
2022-11-20T12:33:17.232Z,70.93
2022-11-20T12:34:17.217Z,71.26
2022-11-20T12:35:17.197Z,71.74
2022-11-20T12:36:17.182Z,71.89
2022-11-20T12:37:17.190Z,71.78
2022-11-20T12:38:17.177Z,71.82
2022-11-20T12:39:17.249Z,71.80
2022-11-20T12:40:17.206Z,72.00
2022-11-20T12:41:17.153Z,72.29
2022-11-20T12:42:17.116Z,71.92
2022-11-20T12:43:17.095Z,72.33
2022-11-20T12:44:17.100Z,72.33
2022-11-20T12:45:17.107Z,71.78
2022-11-20T12:46:17.061Z,72.08
2022-11-20T12:47:17.050Z,72.06
2022-11-20T12:48:17.059Z,71.99
2022-11-20T12:49:17.030Z,71.90
2022-11-20T12:50:17.002Z,72.09
2022-11-20T12:51:16.995Z,72.24
2022-11-20T12:52:16.990Z,71.97
2022-11-20T12:53:16.960Z,72.25
2022-11-20T12:54:16.945Z,72.14
2022-11-20T12:55:16.937Z,72.02
2022-11-20T12:56:16.921Z,72.07
2022-11-20T12:57:16.937Z,71.95
2022-11-20T12:58:16.907Z,72.52
2022-11-20T12:59:16.882Z,72.39
2022-11-20T13:00:16.867Z,72.12
2022-11-20T13:01:16.997Z,72.44
2022-11-20T13:02:16.855Z,72.47
2022-11-20T13:03:16.962Z,72.58
2022-11-20T13:04:16.833Z,72.29
2022-11-20T13:05:16.813Z,72.73
2022-11-20T13:06:16.788Z,72.01
2022-11-20T13:07:16.832Z,72.44
2022-11-20T13:08:16.761Z,72.26
2022-11-20T13:09:16.769Z,72.51
2022-11-20T13:10:16.750Z,72.14
2022-11-20T13:11:16.736Z,72.33
2022-11-20T13:12:16.710Z,72.45
2022-11-20T13:13:16.704Z,72.71
2022-11-20T13:14:16.700Z,72.86
2022-11-20T13:15:16.678Z,73.25
2022-11-20T13:16:16.692Z,73.52
2022-11-20T13:17:16.664Z,74.02
2022-11-20T13:18:16.625Z,74.12
2022-11-20T13:19:16.631Z,74.62
2022-11-20T13:20:16.604Z,75.12
2022-11-20T13:21:16.610Z,75.51
2022-11-20T13:22:16.588Z,75.91
2022-11-20T13:23:16.569Z,75.52
2022-11-20T13:24:16.541Z,75.83
2022-11-20T13:25:16.713Z,76.42
2022-11-20T13:26:16.536Z,76.68
2022-11-20T13:27:16.512Z,77.08
2022-11-20T13:28:16.522Z,77.40
2022-11-20T13:29:16.499Z,77.76
2022-11-20T13:30:16.488Z,77.82
2022-11-20T13:31:16.475Z,78.24
2022-11-20T13:32:16.437Z,78.61
2022-11-20T13:33:16.444Z,78.49
2022-11-20T13:34:16.412Z,78.53
2022-11-20T13:35:16.401Z,78.38
2022-11-20T13:36:16.386Z,78.30
2022-11-20T13:37:16.376Z,78.79
2022-11-20T13:38:16.360Z,78.67
2022-11-20T13:39:16.356Z,77.68
2022-11-20T13:40:16.332Z,77.83
2022-11-20T13:41:16.323Z,78.07
2022-11-20T13:42:16.308Z,78.37
2022-11-20T13:43:16.297Z,77.71
2022-11-20T13:44:16.302Z,77.29
2022-11-20T13:45:16.295Z,77.43
2022-11-20T13:46:16.267Z,77.02
2022-11-20T13:47:16.248Z,77.27
2022-11-20T13:48:16.235Z,77.25
2022-11-20T13:49:16.232Z,76.94
2022-11-20T13:50:16.212Z,77.19
2022-11-20T13:51:16.200Z,77.34
2022-11-20T13:52:16.185Z,77.42
2022-11-20T13:53:16.160Z,76.95
2022-11-20T13:54:16.150Z,76.63
2022-11-20T13:55:16.141Z,76.29
2022-11-20T13:56:16.142Z,76.18
2022-11-20T13:57:16.108Z,76.25
2022-11-20T13:58:16.103Z,76.42
2022-11-20T13:59:16.080Z,76.13
2022-11-20T14:00:16.135Z,76.10
2022-11-20T14:01:16.117Z,76.37
2022-11-20T14:02:16.046Z,75.96
2022-11-20T14:03:16.032Z,75.44
2022-11-20T14:04:16.023Z,75.82
2022-11-20T14:05:16.018Z,75.89
2022-11-20T14:06:15.986Z,76.12
2022-11-20T14:07:15.999Z,76.09
2022-11-20T14:08:15.972Z,75.83
2022-11-20T14:09:15.958Z,75.96
2022-11-20T14:10:15.933Z,76.09
2022-11-20T14:11:15.919Z,75.08
2022-11-20T14:12:15.908Z,74.76
2022-11-20T14:13:15.898Z,74.86
2022-11-20T14:14:15.890Z,74.72
2022-11-20T14:15:15.871Z,74.71
2022-11-20T14:16:15.874Z,74.51
2022-11-20T14:17:15.839Z,74.43
2022-11-20T14:18:15.828Z,74.27
2022-11-20T14:19:15.834Z,74.08
2022-11-20T14:20:15.800Z,73.28
2022-11-20T14:21:15.786Z,73.58
2022-11-20T14:22:15.778Z,73.84
2022-11-20T14:23:15.761Z,73.82
2022-11-20T14:24:15.749Z,73.54
2022-11-20T14:25:15.751Z,73.17
2022-11-20T14:26:15.721Z,73.35
2022-11-20T14:27:15.723Z,73.38
2022-11-20T14:28:15.702Z,72.88
2022-11-20T14:29:15.680Z,72.90
2022-11-20T14:30:15.680Z,72.82
2022-11-20T14:31:15.665Z,72.94
2022-11-20T14:32:15.646Z,73.14
2022-11-20T14:33:15.635Z,73.16
2022-11-20T14:34:15.620Z,73.11
2022-11-20T14:35:15.626Z,72.47
2022-11-20T14:36:15.616Z,72.64
2022-11-20T14:37:17.278Z,72.93
2022-11-20T14:38:15.562Z,72.92
2022-11-20T14:39:15.551Z,72.50
2022-11-20T14:40:15.558Z,72.39
2022-11-20T14:41:15.540Z,72.89
2022-11-20T14:42:15.561Z,72.69
2022-11-20T14:43:15.495Z,72.53
2022-11-20T14:44:15.502Z,72.27
2022-11-20T14:45:15.472Z,72.46
2022-11-20T14:46:15.465Z,72.49
2022-11-20T14:47:15.456Z,72.03
2022-11-20T14:48:15.442Z,71.95
2022-11-20T14:49:15.427Z,71.60
2022-11-20T14:50:15.407Z,71.66
2022-11-20T14:51:15.393Z,71.88
2022-11-20T14:52:15.387Z,71.26
2022-11-20T14:53:15.445Z,71.42
2022-11-20T14:54:15.398Z,71.42
2022-11-20T14:55:15.344Z,71.50
2022-11-20T14:56:15.336Z,70.91
2022-11-20T14:57:15.341Z,71.35
2022-11-20T14:58:15.322Z,71.05
2022-11-20T14:59:15.287Z,71.00
2022-11-20T15:00:15.350Z,70.72
2022-11-20T15:01:15.290Z,71.20
2022-11-20T15:02:15.259Z,71.02
2022-11-20T15:03:15.237Z,71.47
2022-11-20T15:04:15.249Z,71.75
2022-11-20T15:05:15.209Z,71.65
2022-11-20T15:06:15.209Z,71.90
2022-11-20T15:07:15.218Z,71.78
2022-11-20T15:08:15.184Z,71.24
2022-11-20T15:09:15.195Z,71.17
2022-11-20T15:10:15.194Z,71.07
2022-11-20T15:11:15.147Z,71.18
2022-11-20T15:12:15.134Z,71.17
2022-11-20T15:13:15.170Z,71.16
2022-11-20T15:14:15.099Z,71.31
2022-11-20T15:15:15.085Z,71.43
2022-11-20T15:16:19.506Z,71.41
2022-11-20T15:17:15.086Z,71.50
2022-11-20T15:18:15.048Z,71.55
2022-11-20T15:19:15.930Z,71.46
2022-11-20T15:20:15.022Z,70.90
2022-11-20T15:21:15.164Z,70.92
2022-11-20T15:22:16.235Z,70.75
2022-11-20T15:23:15.217Z,71.20
2022-11-20T15:24:15.258Z,71.01
2022-11-20T15:25:15.301Z,71.13
2022-11-20T15:26:20.124Z,71.43
2022-11-20T15:27:20.315Z,71.28
2022-11-20T15:30:11.327Z,70.93
2022-11-20T15:31:12.063Z,70.95
2022-11-20T15:32:13.587Z,71.33
2022-11-20T15:33:13.136Z,71.22
2022-11-20T15:34:12.859Z,71.56
2022-11-20T15:35:12.166Z,71.86
2022-11-20T15:36:11.839Z,71.74
2022-11-20T15:37:13.887Z,71.38
2022-11-20T15:38:11.768Z,71.38
2022-11-20T15:39:12.669Z,71.44